createdAt,value
2022-08-23T00:02:31.188Z,19.84
2022-08-23T00:08:51.145Z,19.8
2022-08-23T00:15:14.164Z,19.77
2022-08-23T00:21:34.170Z,19.7
2022-08-23T00:27:57.209Z,19.58
2022-08-23T00:34:17.145Z,19.41
2022-08-23T00:40:40.152Z,19.22
2022-08-23T00:47:00.164Z,19.09
2022-08-23T00:53:23.147Z,18.95
2022-08-23T00:59:43.170Z,18.83
2022-08-23T01:06:06.138Z,18.82
2022-08-23T01:12:26.213Z,18.82
2022-08-23T01:18:49.146Z,18.78
2022-08-23T01:25:09.364Z,18.68
2022-08-23T01:31:32.170Z,18.54
2022-08-23T01:37:52.147Z,18.44
2022-08-23T01:44:15.200Z,18.37
2022-08-23T01:50:35.141Z,18.28
2022-08-23T01:56:58.183Z,18.18
2022-08-23T02:03:18.146Z,18.11
2022-08-23T02:09:41.140Z,18.06
2022-08-23T02:16:01.197Z,17.99
2022-08-23T02:22:24.149Z,17.88
2022-08-23T02:28:44.184Z,17.82
2022-08-23T02:42:27.251Z,17.82
2022-08-23T02:48:50.275Z,17.75
2022-08-23T02:55:10.292Z,17.65
2022-08-23T03:01:33.274Z,17.62
2022-08-23T03:07:53.318Z,17.57
2022-08-23T03:14:16.277Z,17.54
2022-08-23T03:20:36.327Z,17.48
2022-08-23T03:26:59.287Z,17.45
2022-08-23T03:33:19.183Z,17.4
2022-08-23T03:39:42.248Z,17.36
2022-08-23T03:46:02.142Z,17.29
2022-08-23T04:10:04.909Z,17.1
2022-08-23T04:16:25.142Z,17.07
2022-08-23T04:22:48.198Z,16.96
2022-08-23T04:29:08.193Z,16.91
2022-08-23T04:35:31.142Z,16.84
2022-08-23T04:41:51.191Z,16.8
2022-08-23T04:48:14.149Z,16.8
2022-08-23T04:54:34.153Z,16.83
2022-08-23T05:00:57.222Z,16.76
2022-08-23T05:07:17.161Z,16.77
2022-08-23T05:13:40.203Z,16.82
2022-08-23T05:20:00.160Z,16.9
2022-08-23T05:26:23.189Z,16.98
2022-08-23T05:32:43.153Z,17.03
2022-08-23T05:39:06.150Z,17.04
2022-08-23T05:45:26.180Z,17.04
2022-08-23T05:51:51.470Z,17.08
2022-08-23T05:58:09.172Z,17.17
2022-08-23T06:04:32.149Z,17.3
2022-08-23T06:10:52.181Z,17.47
2022-08-23T06:17:15.137Z,17.69
2022-08-23T06:23:35.144Z,17.94
2022-08-23T06:29:58.201Z,18.19
2022-08-23T06:36:18.153Z,18.45
2022-08-23T06:42:41.165Z,18.71
2022-08-23T06:49:01.146Z,18.98
2022-08-23T06:55:24.174Z,19.21
2022-08-23T07:01:45.946Z,19.47
2022-08-23T07:08:07.168Z,19.76
2022-08-23T07:14:27.179Z,20.1
2022-08-23T07:20:50.161Z,20.4
2022-08-23T07:27:10.173Z,20.68
2022-08-23T07:33:33.175Z,20.96
2022-08-23T07:39:53.233Z,21.24
2022-08-23T07:46:16.292Z,21.53
2022-08-23T07:52:36.159Z,21.8
2022-08-23T07:58:59.183Z,22.15
2022-08-23T08:05:21.699Z,22.49
2022-08-23T08:11:42.145Z,22.81
2022-08-23T08:18:02.370Z,23.09
2022-08-23T08:24:25.144Z,23.38
2022-08-23T08:30:45.177Z,23.72
2022-08-23T08:37:08.144Z,24.05
2022-08-23T08:43:28.141Z,24.3
2022-08-23T08:49:51.170Z,24.53
2022-08-23T08:56:11.139Z,24.75
2022-08-23T09:02:34.267Z,25.03
2022-08-23T09:08:54.147Z,25.33
2022-08-23T09:15:17.148Z,25.69
2022-08-23T09:21:37.184Z,26.11
2022-08-23T09:28:00.224Z,26.45
2022-08-23T09:34:20.171Z,26.82
2022-08-23T09:40:43.150Z,27.08
2022-08-23T09:57:27.795Z,27.32
2022-08-23T10:03:50.156Z,27.33
2022-08-23T10:10:10.147Z,27.62
2022-08-23T10:16:33.267Z,28.11
2022-08-23T10:22:53.145Z,28.32
2022-08-23T10:29:16.175Z,28.5
2022-08-23T10:35:36.156Z,28.83
2022-08-23T10:41:59.136Z,29.29
2022-08-23T10:48:21.246Z,29.73
2022-08-23T10:54:42.142Z,29.96
2022-08-23T11:01:02.176Z,30.15
2022-08-23T11:07:25.149Z,30.03
2022-08-23T11:13:45.146Z,29.98
2022-08-23T11:20:08.184Z,30.11
2022-08-23T11:26:28.147Z,30.61
2022-08-23T11:32:51.166Z,30.64
2022-08-23T11:39:11.159Z,30.97
2022-08-23T11:45:34.144Z,31.3
2022-08-23T11:51:54.175Z,31.78
2022-08-23T11:58:17.148Z,31.92
2022-08-23T12:04:37.175Z,32.19
2022-08-23T12:11:00.144Z,32.76
2022-08-23T12:17:20.441Z,33.28
2022-08-23T12:23:43.182Z,33.22
2022-08-23T12:30:03.146Z,33.18
2022-08-23T12:36:26.144Z,33.26
2022-08-23T12:42:46.158Z,33.17
2022-08-23T12:49:09.148Z,33.07
2022-08-23T12:55:29.177Z,33.41
2022-08-23T13:01:52.215Z,33.73
2022-08-23T13:08:12.170Z,33.98
2022-08-23T13:14:35.167Z,33.67
2022-08-23T13:20:55.183Z,33.84
2022-08-23T13:27:18.182Z,33.88
2022-08-23T13:33:41.065Z,33.53
2022-08-23T13:40:01.180Z,33.81
2022-08-23T13:46:22.228Z,34.37
2022-08-23T13:53:11.358Z,33.9
2022-08-23T13:59:04.178Z,33.99
2022-08-23T14:05:27.177Z,34.16
2022-08-23T14:11:47.147Z,34.04
2022-08-23T14:18:10.154Z,34.1
2022-08-23T14:24:30.144Z,34.36
2022-08-23T14:30:53.186Z,34.74
2022-08-23T14:43:36.151Z,35.32
2022-08-23T14:49:56.166Z,35.44
2022-08-23T14:56:21.689Z,34.94
2022-08-23T15:02:39.181Z,34.48
2022-08-23T15:09:02.173Z,34.29
2022-08-23T15:15:22.332Z,33.94
2022-08-23T15:21:45.165Z,33.43
2022-08-23T15:28:07.598Z,33.15
2022-08-23T15:34:29.188Z,32.93
2022-08-23T15:40:48.168Z,32.73
2022-08-23T15:47:11.153Z,32.62
2022-08-23T16:03:19.756Z,32.11
2022-08-23T16:09:20.155Z,31.97
2022-08-23T16:15:43.147Z,31.87
2022-08-23T16:22:03.166Z,31.53
2022-08-23T16:28:26.149Z,31.24
2022-08-23T16:34:46.179Z,31.38
2022-08-23T16:41:09.167Z,31.47
2022-08-23T16:47:29.149Z,31.43
2022-08-23T16:53:54.399Z,31.27
2022-08-23T17:00:12.150Z,31.19
2022-08-23T17:06:35.183Z,30.99
2022-08-23T17:12:55.162Z,30.66
2022-08-23T17:19:18.142Z,30.4
2022-08-23T17:25:38.178Z,30.3
2022-08-23T17:32:01.208Z,30.17
2022-08-23T17:38:21.185Z,29.98
2022-08-23T17:44:44.165Z,29.74
2022-08-23T17:51:04.153Z,29.51
2022-08-23T17:57:27.181Z,29.26
2022-08-23T18:03:47.154Z,29.05
2022-08-23T18:10:10.155Z,28.87
2022-08-23T18:16:34.628Z,28.7
2022-08-23T18:22:53.153Z,28.51
2022-08-23T18:29:13.165Z,28.3
2022-08-23T18:35:36.151Z,28.17
2022-08-23T18:41:56.142Z,28.01
2022-08-23T18:48:19.157Z,27.8
2022-08-23T18:54:39.135Z,27.63
2022-08-23T19:01:05.927Z,27.44
2022-08-23T19:07:22.151Z,27.13
2022-08-23T19:13:45.142Z,26.75
2022-08-23T19:20:05.165Z,26.46
2022-08-23T19:26:28.144Z,26.26
2022-08-23T19:32:48.173Z,26.03
2022-08-23T19:39:11.156Z,25.8
2022-08-23T19:45:32.214Z,25.54
2022-08-23T19:51:54.190Z,25.33
2022-08-23T19:58:14.136Z,25.14
2022-08-23T20:04:37.156Z,24.96
2022-08-23T20:10:57.155Z,24.78
2022-08-23T20:17:20.132Z,24.57
2022-08-23T20:23:40.162Z,24.37
2022-08-23T20:30:03.143Z,24.25
2022-08-23T20:36:23.137Z,24.16
2022-08-23T20:42:46.159Z,23.99
2022-08-23T20:49:06.134Z,23.88
2022-08-23T20:55:29.179Z,23.64
2022-08-23T21:01:49.213Z,23.5
2022-08-23T21:08:12.827Z,23.41
2022-08-23T21:14:32.173Z,23.33
2022-08-23T21:20:55.141Z,23.2
2022-08-23T21:27:15.172Z,23.05
2022-08-23T21:33:40.288Z,22.97
2022-08-23T21:39:58.175Z,22.9
2022-08-23T21:46:21.226Z,22.72
2022-08-23T22:20:17.169Z,22.07
2022-08-23T22:26:37.160Z,22.02
2022-08-23T22:33:00.166Z,21.94
2022-08-23T22:39:20.152Z,21.83
2022-08-23T22:45:45.010Z,21.7
2022-08-23T22:52:03.166Z,21.62
2022-08-23T22:58:26.142Z,21.47
2022-08-23T23:04:46.181Z,21.37
2022-08-23T23:11:09.139Z,21.26
2022-08-23T23:17:29.158Z,21.16
2022-08-23T23:23:52.163Z,21.11
2022-08-23T23:30:12.142Z,21.04
2022-08-23T23:36:35.186Z,20.93
2022-08-23T23:42:55.130Z,20.84
2022-08-23T23:49:18.185Z,20.79
2022-08-23T23:55:38.141Z,20.76
